MX MXGP

MXGP Rep. CHECA – CLASIFICACIONES

Una clasificación que dio como la noticia mas fuerte el golpe que sin intención le pega Jordi Tixier a Jefrey Herlings fracturándole el fémur y dejándolo fuera de carrera para toda la temporada, que ha sido de mala suerte para el holandés. En MXGP, Febvré sigue dominando.

MX2 – Qualifying Race – Classification
Pos Nr Rider Nat. Fed. Bike Time laps Diff. First Diff. Prev. Bestlaptime in lap Speed
1 99 Anstie, Max GBR ACU Kawasaki 24:08.359 13 0:00.000 0:00.000 1:47.537 3 53.1
2 92 Guillod, Valentin SUI FMS Yamaha 24:14.624 13 0:06.265 0:06.265 1:47.065 9 53.3
3 6 Paturel, Benoit FRA FFM Yamaha 24:19.142 13 0:10.783 0:04.518 1:48.546 6 52.6
4 41 Jonass, Pauls LAT LAMSF KTM 24:21.004 13 0:12.645 0:01.862 1:48.914 12 52.4
5 91 Seewer, Jeremy SUI FMS Suzuki 24:24.055 13 0:15.696 0:03.051 1:48.191 5 52.8
6 243 Gajser, Tim SLO AMZS Honda 24:24.890 13 0:16.531 0:00.835 1:48.533 8 52.6
7 321 Bernardini, Samuele ITA FMI TM 24:26.340 13 0:17.981 0:01.450 1:48.502 2 52.6
8 152 Petrov, Petar BUL QMMF Kawasaki 24:26.965 13 0:18.606 0:00.625 1:48.300 8 52.7
9 95 Justs, Roberts LAT LAMSF KTM 24:27.943 13 0:19.584 0:00.978 1:49.198 5 52.3
10 189 Bogers, Brian NED KNMV KTM 24:28.342 13 0:19.983 0:00.399 1:48.907 4 52.4
11 85 Pootjes, Davy NED KNMV KTM 24:29.672 13 0:21.313 0:01.330 1:49.665 7 52.1
12 172 Van doninck, Brent BEL FMB Yamaha 24:31.300 13 0:22.941 0:01.628 1:48.828 8 52.5
13 151 Kullas, Harri FIN SML Husqvarna 24:37.882 13 0:29.523 0:06.582 1:49.280 6 52.2
14 919 Watson, Ben GBR ACU KTM 24:42.177 13 0:33.818 0:04.295 1:49.700 11 52
15 29 Jacobi, Henry GER DMSB KTM 24:43.863 13 0:35.504 0:01.686 1:49.644 10 52.1
16 811 Sterry, Adam GBR ACU KTM 24:44.872 13 0:36.513 0:01.009 1:49.386 6 52.2
17 18 Brylyakov, Vsevolod RUS MFR Honda 24:45.427 13 0:37.068 0:00.555 1:49.128 10 52.3
18 33 Lieber, Julien BEL FMB Yamaha 24:56.508 13 0:48.149 0:11.081 1:48.608 7 52.6
19 1 Tixier, Jordi FRA FFM Kawasaki 25:03.954 13 0:55.595 0:07.446 1:48.636 6 52.6
20 922 Fors, Kevin BEL FMB Yamaha 25:05.185 13 0:56.826 0:01.231 1:51.074 8 51.4
21 274 Lundgren, Anton SWE SVEMO Husqvarna 25:10.467 13 1:02.108 0:05.282 1:51.688 12 51.1
22 202 Nedved, Jonas CZE ACCR KTM 25:11.944 13 1:03.585 0:01.477 1:51.920 12 51
23 97 Ivanov, Maykal Grisha BUL QMMF Husqvarna 25:12.864 13 1:04.505 0:00.920 1:51.983 4 51
24 137 Krc, Martin CZE ACCR KTM 25:14.562 13 1:06.203 0:01.698 1:52.438 6 50.8
25 101 Zaragoza, Jorge ESP RFME Honda 25:16.110 13 1:07.751 0:01.548 1:51.084 11 51.4
26 15 Bonini, Davide ITA FMI Husqvarna 25:16.589 13 1:08.230 0:00.479 1:51.072 13 51.4
27 538 Kratzer, Michael AUT OeAMTC Kawasaki 25:30.198 13 1:21.839 0:13.609 1:53.300 12 50.4
28 831 Wysocki, Tomasz POL PZM KTM 25:31.187 13 1:22.828 0:00.989 1:51.707 7 51.1
29 51 Getteman, Jens BEL FMB Honda 25:32.709 13 1:24.350 0:01.522 1:50.566 12 51.6
30 300 Golovkin, Viacheslav RUS FMI KTM 26:02.774 13 1:54.415 0:30.065 1:54.635 3 49.8
31 132 Kutsar, Karel EST EMF KTM 24:22.700 12 1 lap 1 lap 1:54.674 5 49.8
32 64 Covington, Thomas USA FFM Kawasaki 24:23.485 12 1 lap 0:00.785 1:50.324 4 51.8
33 84 Herlings, Jeffrey NED KNMV KTM 13:32.879 7 6 laps 5 laps 1:49.083 5 52.3
34 128 Monticelli, Ivo ITA FMI KTM 11:51.511 6 7 laps 1 lap 1:49.524 5 52.1

 

MXGP – Qualifying Race – Classification
Pos Nr Rider Nat. Fed. Bike Time laps Diff. First Diff. Prev. Bestlaptime in lap Speed
1 461 Febvre, Romain FRA FFM Yamaha 23:42.613 13 0:00.000 0:00.000 1:45.569 4 54.1
2 21 Paulin, Gautier FRA MCM Honda 23:53.673 13 0:11.060 0:11.060 1:46.486 4 53.6
3 259 Coldenhoff, Glenn NED KNMV Suzuki 24:01.473 13 0:18.860 0:07.800 1:47.861 12 52.9
4 24 Simpson, Shaun GBR ACU KTM 24:04.028 13 0:21.415 0:02.555 1:46.459 9 53.6
5 100 Searle, Tommy GBR ACU KTM 24:05.308 13 0:22.695 0:01.280 1:47.506 9 53.1
6 89 Van Horebeek, Jeremy BEL FMB Yamaha 24:06.392 13 0:23.779 0:01.084 1:47.125 6 53.3
7 25 Desalle, Clement BEL FMB Suzuki 24:07.769 13 0:25.156 0:01.377 1:47.611 3 53.1
8 777 Bobryshev, Evgeny RUS FSM Honda 24:10.484 13 0:27.871 0:02.715 1:46.818 8 53.5
9 22 Strijbos, Kevin BEL FMB Suzuki 24:12.450 13 0:29.837 0:01.966 1:46.613 6 53.6
10 47 Waters, Todd AUS MA Husqvarna 24:13.891 13 0:31.278 0:01.441 1:47.730 9 53
11 19 Philippaerts, David ITA FMI Yamaha 24:23.254 13 0:40.641 0:09.363 1:49.078 4 52.3
12 39 Guarneri, Davide ITA FMI TM 24:24.653 13 0:42.040 0:01.399 1:48.902 5 52.4
13 991 Watson, Nathan GBR ACU Husqvarna 24:25.662 13 0:43.049 0:01.009 1:48.055 9 52.8
14 28 Rattray, Tyla RSA MSA Kawasaki 24:38.232 13 0:55.619 0:12.570 1:48.948 7 52.4
15 111 Ferris, Dean AUS MA Husqvarna 24:43.441 13 1:00.828 0:05.209 1:49.694 4 52.1
16 17 Butron, Jose ESP RFME KTM 24:44.661 13 1:02.048 0:01.220 1:49.438 8 52.2
17 909 Neurauter, Lukas AUT OeAMTC KTM 24:46.133 13 1:03.520 0:01.472 1:49.103 5 52.3
18 11 Bengtsson, Filip SWE SVEMO Honda 24:51.350 13 1:08.737 0:05.217 1:48.417 5 52.7
19 45 Nicholls, Jake GBR ACU KTM 24:56.246 13 1:13.633 0:04.896 1:50.899 4 51.5
20 149 Ullrich, Dennis GER DMSB Suzuki 24:57.870 13 1:15.257 0:01.624 1:50.883 5 51.5
21 400 Yamamoto, Kei JPN MFJ Honda 24:58.055 13 1:15.442 0:00.185 1:50.716 4 51.6
22 156 Heidecke, Angus GER DMSB KTM 25:00.702 13 1:18.089 0:02.647 1:50.951 4 51.5
23 62 Gercar, Klemen SLO AMZS Husqvarna 25:26.403 13 1:43.790 0:25.701 1:52.979 4 50.5
24 38 Kouzis, Panagiotis GRE AMOTOE Honda 24:18.554 12 1 lap 1 lap 1:55.612 6 49.4
25 173 Bertuzzo, Pier Filippo ITA FMI Yamaha 24:33.138 12 1 lap 0:14.584 1:54.463 12 49.9
26 23 Charlier, Christophe FRA FFM Honda 16:56.803 8 5 laps 4 laps 1:47.699 5 53
27 20 Aranda, Gregory FRA DMSB Kawasaki 2:29.813 1 12 laps 7 laps 1:56.635 1 49